createdAt,value
2018-07-10T00:02:48.244Z,100723.02
2018-07-10T00:07:35.874Z,100720.77
2018-07-10T00:10:27.171Z,100720.38
2018-07-10T00:12:55.444Z,100721.72
2018-07-10T00:15:23.741Z,100720.63
2018-07-10T00:17:52.163Z,100720.27
2018-07-10T00:20:20.427Z,100711.41
2018-07-10T00:22:49.059Z,100711.77
2018-07-10T00:25:17.476Z,100713.83
2018-07-10T00:27:45.766Z,100720.44
2018-07-10T00:30:14.105Z,100718.19
2018-07-10T00:32:42.343Z,100716.63
2018-07-10T00:35:10.397Z,100725.19
2018-07-10T00:37:38.445Z,100715.63
2018-07-10T00:40:07.111Z,100709.22
2018-07-10T00:42:35.253Z,100713.66
2018-07-10T00:45:03.315Z,100712.33
2018-07-10T00:47:31.391Z,100697.55
2018-07-10T00:49:59.816Z,100700.70
2018-07-10T00:52:32.614Z,100695.80
2018-07-10T00:55:00.996Z,100696.75
2018-07-10T00:57:30.411Z,100703.55
2018-07-10T00:59:58.531Z,100706.14
2018-07-10T01:02:26.588Z,100698.55
2018-07-10T01:04:54.636Z,100708.20
2018-07-10T01:07:23.393Z,100699.78
2018-07-10T01:09:51.479Z,100699.09
2018-07-10T01:12:19.551Z,100690.77
2018-07-10T01:14:47.626Z,100688.22
2018-07-10T01:17:16.722Z,100673.25
2018-07-10T01:19:44.821Z,100684.74
2018-07-10T01:22:12.884Z,100691.20
2018-07-10T01:24:40.915Z,100682.00
2018-07-10T01:27:08.998Z,100689.06
2018-07-10T01:29:42.431Z,100696.55
2018-07-10T01:32:10.903Z,100693.70
2018-07-10T01:34:38.968Z,100690.86
2018-07-10T01:37:07.009Z,100689.48
2018-07-10T01:39:35.076Z,100680.58
2018-07-10T01:42:03.131Z,100668.67
2018-07-10T01:44:31.198Z,100674.45
2018-07-10T01:46:59.356Z,100678.03
2018-07-10T01:49:27.608Z,100673.42
2018-07-10T01:51:55.823Z,100672.84
2018-07-10T01:54:24.363Z,100671.45
2018-07-10T01:56:52.435Z,100673.42
2018-07-10T01:59:21.820Z,100674.77
2018-07-10T02:01:49.893Z,100669.89
2018-07-10T02:04:17.975Z,100664.77
2018-07-10T02:06:46.059Z,100668.50
2018-07-10T02:09:14.112Z,100669.51
2018-07-10T02:11:43.086Z,100670.31
2018-07-10T02:14:11.196Z,100672.34
2018-07-10T02:16:39.288Z,100676.73
2018-07-10T02:19:07.336Z,100675.13
2018-07-10T02:21:35.428Z,100664.99
2018-07-10T02:24:03.463Z,100661.64
2018-07-10T02:26:31.552Z,100657.48
2018-07-10T02:28:59.667Z,100649.28
2018-07-10T02:31:27.765Z,100646.67
2018-07-10T02:33:55.820Z,100649.90
2018-07-10T02:36:24.644Z,100641.94
2018-07-10T02:38:57.263Z,100632.03
2018-07-10T02:41:25.360Z,100636.55
2018-07-10T02:43:55.879Z,100635.58
2018-07-10T02:46:24.614Z,100643.55
2018-07-10T02:48:53.478Z,100640.97
2018-07-10T02:51:21.568Z,100636.81
2018-07-10T02:53:49.664Z,100643.97
2018-07-10T02:56:19.724Z,100647.90
2018-07-10T02:58:47.748Z,100643.55
2018-07-10T03:01:15.930Z,100640.97
2018-07-10T03:03:44.848Z,100636.38
2018-07-10T03:06:13.150Z,100630.84
2018-07-10T03:08:41.428Z,100632.80
2018-07-10T03:11:09.720Z,100627.64
2018-07-10T03:13:39.526Z,100627.23
2018-07-10T03:16:07.604Z,100619.10
2018-07-10T03:18:35.658Z,100619.91
2018-07-10T03:21:03.709Z,100620.33
2018-07-10T03:23:31.823Z,100615.17
2018-07-10T03:25:59.891Z,100623.27
2018-07-10T03:28:28.148Z,100611.69
2018-07-10T03:30:56.192Z,100619.58
2018-07-10T03:33:24.222Z,100619.94
2018-07-10T03:35:52.452Z,100617.32
2018-07-10T03:38:20.530Z,100622.22
2018-07-10T03:40:48.611Z,100613.67
2018-07-10T03:43:16.781Z,100617.06
2018-07-10T03:45:44.900Z,100613.64
2018-07-10T03:48:12.951Z,100618.38
2018-07-10T03:50:40.998Z,100617.66
2018-07-10T03:53:09.511Z,100616.85
2018-07-10T03:55:37.905Z,100616.50
2018-07-10T03:58:05.950Z,100609.77
2018-07-10T04:00:34.641Z,100615.95
2018-07-10T04:03:02.744Z,100608.52
2018-07-10T04:05:30.807Z,100611.13
2018-07-10T04:07:58.927Z,100607.55
2018-07-10T04:10:27.956Z,100604.36
2018-07-10T04:12:56.443Z,100604.36
2018-07-10T04:15:24.502Z,100598.30
2018-07-10T04:17:58.954Z,100595.36
2018-07-10T04:20:31.179Z,100593.02
2018-07-10T04:22:59.243Z,100595.20
2018-07-10T04:25:34.351Z,100591.69
2018-07-10T04:28:06.000Z,100593.50
2018-07-10T04:30:40.632Z,100583.27
2018-07-10T04:33:08.972Z,100582.53
2018-07-10T04:35:37.068Z,100578.56
2018-07-10T04:38:05.385Z,100582.95
2018-07-10T04:40:33.531Z,100581.23
2018-07-10T04:43:05.252Z,100583.08
2018-07-10T04:45:39.680Z,100576.14
2018-07-10T04:48:14.626Z,100578.92
2018-07-10T04:50:46.503Z,100574.81
2018-07-10T04:53:26.043Z,100570.05
2018-07-10T04:55:55.836Z,100562.69
2018-07-10T04:58:23.953Z,100570.58
2018-07-10T05:00:55.585Z,100570.58
2018-07-10T05:03:25.012Z,100576.13
2018-07-10T05:05:53.122Z,100572.94
2018-07-10T05:08:21.740Z,100570.33
2018-07-10T05:10:51.928Z,100564.95
2018-07-10T05:13:20.136Z,100566.00
2018-07-10T05:15:51.872Z,100563.64
2018-07-10T05:18:19.940Z,100565.89
2018-07-10T05:20:47.997Z,100566.70
2018-07-10T05:23:17.219Z,100565.89
2018-07-10T05:25:47.560Z,100567.80
2018-07-10T05:28:15.773Z,100567.39
2018-07-10T05:30:44.493Z,100562.00
2018-07-10T05:33:13.379Z,100566.85
2018-07-10T05:35:41.796Z,100562.05
2018-07-10T05:38:09.907Z,100557.19
2018-07-10T05:40:38.014Z,100560.45
2018-07-10T05:43:13.342Z,100555.74
2018-07-10T05:45:41.528Z,100552.65
2018-07-10T05:48:09.712Z,100554.33
2018-07-10T05:50:41.354Z,100554.64
2018-07-10T05:53:10.249Z,100544.36
2018-07-10T05:55:44.240Z,100550.00
2018-07-10T05:58:12.296Z,100542.16
2018-07-10T06:00:40.512Z,100537.66
2018-07-10T06:03:08.575Z,100532.12
2018-07-10T06:05:36.635Z,100529.21
2018-07-10T06:08:04.770Z,100523.28
2018-07-10T06:10:33.181Z,100521.55
2018-07-10T06:13:02.304Z,100513.30
2018-07-10T06:15:30.747Z,100523.06
2018-07-10T06:17:58.838Z,100511.36
2018-07-10T06:20:27.184Z,100522.16
2018-07-10T06:22:56.596Z,100515.22
2018-07-10T06:25:24.701Z,100512.23
2018-07-10T06:28:01.372Z,100521.80
2018-07-10T06:30:29.599Z,100513.81
2018-07-10T06:32:59.773Z,100518.94
2018-07-10T06:35:44.435Z,100514.97
2018-07-10T06:38:14.192Z,100512.84
2018-07-10T06:40:44.549Z,100502.63
2018-07-10T06:43:15.484Z,100512.91
2018-07-10T06:45:43.794Z,100492.13
2018-07-10T06:48:12.505Z,100486.64
2018-07-10T06:50:40.594Z,100487.98
2018-07-10T06:53:09.828Z,100492.39
2018-07-10T06:55:41.612Z,100491.34
2018-07-10T06:58:09.676Z,100486.91
2018-07-10T07:00:37.911Z,100490.33
2018-07-10T07:03:05.987Z,100498.37
2018-07-10T07:05:34.045Z,100491.10
2018-07-10T07:08:02.143Z,100493.34
2018-07-10T07:10:30.195Z,100483.35
2018-07-10T07:12:58.280Z,100487.86
2018-07-10T07:15:26.362Z,100478.41
2018-07-10T07:17:54.428Z,100478.48
2018-07-10T07:20:23.167Z,100476.19
2018-07-10T07:22:51.893Z,100467.59
2018-07-10T07:25:19.952Z,100466.11
2018-07-10T07:27:48.057Z,100464.14
2018-07-10T07:30:16.109Z,100464.00
2018-07-10T07:32:44.183Z,100457.82
2018-07-10T07:35:12.260Z,100456.08
2018-07-10T07:37:41.505Z,100456.94
2018-07-10T07:40:10.576Z,100451.82
2018-07-10T07:42:38.975Z,100453.48
2018-07-10T07:45:07.201Z,100447.02
2018-07-10T07:47:35.278Z,100447.64
2018-07-10T07:50:03.407Z,100443.70
2018-07-10T07:52:32.402Z,100446.08
2018-07-10T07:55:01.495Z,100449.22
2018-07-10T07:57:29.567Z,100452.50
2018-07-10T07:59:57.679Z,100453.03
2018-07-10T08:02:26.207Z,100453.34
2018-07-10T08:04:54.469Z,100447.30
2018-07-10T08:07:23.655Z,100451.52
2018-07-10T08:09:53.216Z,100435.58
2018-07-10T08:12:22.211Z,100433.60
2018-07-10T08:14:51.412Z,100432.26
2018-07-10T08:17:20.048Z,100435.91
2018-07-10T08:19:48.121Z,100426.30
2018-07-10T08:22:16.174Z,100424.86
2018-07-10T08:24:44.567Z,100425.78
2018-07-10T08:27:12.656Z,100420.95
2018-07-10T08:29:41.152Z,100419.89
2018-07-10T08:32:09.355Z,100413.34
2018-07-10T08:34:37.484Z,100409.06
2018-07-10T08:37:05.837Z,100405.59
2018-07-10T08:39:33.896Z,100399.48
2018-07-10T08:42:04.976Z,100402.22
2018-07-10T08:44:33.148Z,100400.55
2018-07-10T08:47:01.296Z,100402.61
2018-07-10T08:49:32.764Z,100399.54
2018-07-10T08:52:00.884Z,100398.45
2018-07-10T08:54:29.117Z,100396.82
2018-07-10T08:56:57.492Z,100387.25
2018-07-10T08:59:25.721Z,100391.71
2018-07-10T09:01:53.871Z,100388.89
2018-07-10T09:04:21.940Z,100386.88
2018-07-10T09:06:50.116Z,100378.30
2018-07-10T09:09:18.544Z,100381.66
2018-07-10T09:11:46.590Z,100380.63
2018-07-10T09:14:16.063Z,100383.01
2018-07-10T09:16:44.296Z,100372.48
2018-07-10T09:19:14.309Z,100372.13
2018-07-10T09:21:45.795Z,100368.02
2018-07-10T09:24:13.828Z,100363.31
2018-07-10T09:26:41.907Z,100368.93
2018-07-10T09:29:09.950Z,100366.77
2018-07-10T09:31:38.067Z,100362.60
2018-07-10T09:34:06.111Z,100359.64
2018-07-10T09:36:34.200Z,100355.28
2018-07-10T09:39:02.274Z,100362.45
2018-07-10T09:41:30.500Z,100355.69
2018-07-10T09:43:59.409Z,100364.83
2018-07-10T09:46:29.476Z,100363.69
2018-07-10T09:48:58.232Z,100357.35
2018-07-10T09:51:26.462Z,100359.92
2018-07-10T09:53:54.955Z,100360.47
2018-07-10T09:56:23.015Z,100359.08
2018-07-10T09:58:54.270Z,100361.46
2018-07-10T10:01:26.841Z,100354.55
2018-07-10T10:03:55.855Z,100355.34
2018-07-10T10:06:25.231Z,100355.72
2018-07-10T10:08:53.321Z,100354.91
2018-07-10T10:11:21.476Z,100341.23
2018-07-10T10:13:50.235Z,100351.98
2018-07-10T10:16:18.592Z,100354.66
2018-07-10T10:18:47.337Z,100344.95
2018-07-10T10:21:16.140Z,100348.17
2018-07-10T10:23:45.066Z,100344.42
2018-07-10T10:26:15.001Z,100347.30
2018-07-10T10:28:43.926Z,100347.32
2018-07-10T10:31:12.345Z,100330.90
2018-07-10T10:33:40.395Z,100331.30
2018-07-10T10:36:08.890Z,100332.73
2018-07-10T10:38:42.421Z,100324.39
2018-07-10T10:41:12.364Z,100325.23
2018-07-10T10:43:40.733Z,100321.64
2018-07-10T10:46:09.014Z,100323.88
2018-07-10T10:48:37.374Z,100315.50
2018-07-10T10:51:05.996Z,100317.92
2018-07-10T10:53:34.072Z,100305.98
2018-07-10T10:56:02.144Z,100313.72
2018-07-10T10:58:30.390Z,100311.35
2018-07-10T11:00:58.451Z,100312.55
2018-07-10T11:03:26.524Z,100305.75
2018-07-10T11:05:55.194Z,100311.11
2018-07-10T11:08:23.263Z,100310.68
2018-07-10T11:10:51.365Z,100307.89
2018-07-10T11:13:20.174Z,100312.83
2018-07-10T11:15:49.007Z,100307.05
2018-07-10T11:18:36.784Z,100308.63
2018-07-10T11:21:10.044Z,100315.14
2018-07-10T11:23:52.424Z,100307.19
2018-07-10T11:26:33.720Z,100313.53
2018-07-10T11:29:02.316Z,100299.43
2018-07-10T11:31:30.427Z,100303.62
2018-07-10T11:33:58.503Z,100304.87
2018-07-10T11:36:26.855Z,100305.30
2018-07-10T11:38:58.946Z,100304.89
2018-07-10T11:41:27.569Z,100302.73
2018-07-10T11:43:55.899Z,100313.09
2018-07-10T11:46:24.077Z,100315.50
2018-07-10T11:48:53.798Z,100315.70
2018-07-10T11:51:21.930Z,100312.49
2018-07-10T11:53:51.038Z,100314.31
2018-07-10T11:56:19.680Z,100312.13
2018-07-10T11:58:48.611Z,100307.95
2018-07-10T12:01:16.662Z,100306.53
2018-07-10T12:03:44.831Z,100300.95
2018-07-10T12:06:12.905Z,100301.56
2018-07-10T12:08:41.007Z,100296.17
2018-07-10T12:11:17.544Z,100297.37
2018-07-10T12:13:46.190Z,100291.59
2018-07-10T12:16:14.877Z,100274.69
2018-07-10T12:18:44.518Z,100270.73
2018-07-10T12:21:14.572Z,100276.28
2018-07-10T12:23:43.155Z,100271.13
2018-07-10T12:26:12.356Z,100277.11
2018-07-10T12:28:41.512Z,100279.88
2018-07-10T12:31:10.953Z,100276.11
2018-07-10T12:33:39.512Z,100276.31
2018-07-10T12:36:07.760Z,100269.56
2018-07-10T12:38:35.826Z,100273.73
2018-07-10T12:41:04.261Z,100272.33
2018-07-10T12:43:32.748Z,100266.34
2018-07-10T12:46:00.811Z,100263.97
2018-07-10T12:48:29.251Z,100264.96
2018-07-10T12:50:57.714Z,100260.97
2018-07-10T12:53:25.804Z,100252.02
2018-07-10T12:55:53.955Z,100256.19
2018-07-10T12:58:22.073Z,100263.55
2018-07-10T13:00:50.713Z,100257.96
2018-07-10T13:03:21.627Z,100253.19
2018-07-10T13:05:51.349Z,100264.89
2018-07-10T13:08:19.473Z,100262.30
2018-07-10T13:10:48.362Z,100264.28
2018-07-10T13:13:16.782Z,100262.30
2018-07-10T13:15:45.311Z,100252.75
2018-07-10T13:18:14.082Z,100247.19
2018-07-10T13:20:42.137Z,100241.22
2018-07-10T13:23:10.210Z,100234.87
2018-07-10T13:25:38.296Z,100237.20
2018-07-10T13:28:06.477Z,100235.78
2018-07-10T13:30:34.579Z,100245.69
2018-07-10T13:33:02.809Z,100234.92
2018-07-10T13:35:30.884Z,100235.84
2018-07-10T13:37:58.926Z,100237.41
2018-07-10T13:40:27.315Z,100230.23
2018-07-10T13:42:57.693Z,100233.55
2018-07-10T13:45:26.907Z,100246.59
2018-07-10T13:47:54.975Z,100242.74
2018-07-10T13:50:25.846Z,100261.91
2018-07-10T13:52:55.058Z,100273.50
2018-07-10T13:55:23.131Z,100257.51
2018-07-10T13:59:00.063Z,100248.70
2018-07-10T14:01:28.260Z,100258.66
2018-07-10T14:03:56.335Z,100253.44
2018-07-10T14:06:24.496Z,100248.33
2018-07-10T14:08:52.661Z,100241.50
2018-07-10T14:11:20.752Z,100250.94
2018-07-10T14:13:48.869Z,100240.61
2018-07-10T14:16:16.991Z,100242.74
2018-07-10T14:18:45.053Z,100236.69
2018-07-10T14:21:13.099Z,100233.01
2018-07-10T14:23:41.204Z,100231.91
2018-07-10T14:26:09.295Z,100226.28
2018-07-10T14:28:37.380Z,100224.95
2018-07-10T14:31:05.466Z,100228.95
2018-07-10T14:33:33.548Z,100232.54
2018-07-10T14:36:01.633Z,100232.16
2018-07-10T14:38:30.781Z,100222.60
2018-07-10T14:41:03.338Z,100223.41
2018-07-10T14:43:33.519Z,100224.02
2018-07-10T14:46:08.833Z,100226.77
2018-07-10T14:49:07.849Z,100227.16
2018-07-10T14:51:41.752Z,100217.98
2018-07-10T14:54:11.155Z,100222.33
2018-07-10T14:56:39.264Z,100223.89
2018-07-10T14:59:07.692Z,100217.30
2018-07-10T15:01:35.711Z,100206.50
2018-07-10T15:04:03.808Z,100202.29
2018-07-10T15:06:32.084Z,100203.82
2018-07-10T15:09:00.603Z,100206.59
2018-07-10T15:11:28.679Z,100204.55
2018-07-10T15:14:00.069Z,100207.03
2018-07-10T15:16:32.327Z,100210.64
2018-07-10T15:19:00.783Z,100210.46
2018-07-10T15:21:29.483Z,100209.51
2018-07-10T15:23:57.755Z,100202.97
2018-07-10T15:26:25.873Z,100201.09
2018-07-10T15:28:54.481Z,100195.47
2018-07-10T15:31:22.661Z,100200.92
2018-07-10T15:33:50.752Z,100202.52
2018-07-10T15:36:18.856Z,100205.00
2018-07-10T15:38:47.510Z,100203.23
2018-07-10T15:41:15.957Z,100201.23
2018-07-10T15:43:44.143Z,100203.83
2018-07-10T15:46:12.238Z,100201.03
2018-07-10T15:48:40.327Z,100206.25
2018-07-10T15:51:08.904Z,100201.50
2018-07-10T15:53:37.512Z,100198.73
2018-07-10T15:56:07.606Z,100198.94
2018-07-10T15:58:38.282Z,100201.30
2018-07-10T16:01:07.035Z,100196.14
2018-07-10T16:03:35.230Z,100196.55
2018-07-10T16:06:04.649Z,100200.73
2018-07-10T16:08:36.629Z,100189.01
2018-07-10T16:11:05.372Z,100202.35
2018-07-10T16:13:37.681Z,100203.73
2018-07-10T16:16:06.368Z,100205.92
2018-07-10T16:18:34.480Z,100202.91
2018-07-10T16:21:03.736Z,100194.50
2018-07-10T16:23:33.360Z,100191.85
2018-07-10T16:26:11.094Z,100192.05
2018-07-10T16:28:42.232Z,100195.27
2018-07-10T16:31:14.391Z,100201.50
2018-07-10T16:33:42.501Z,100202.15
2018-07-10T16:36:10.730Z,100199.21
2018-07-10T16:38:39.872Z,100199.61
2018-07-10T16:41:13.320Z,100206.44
2018-07-10T16:43:41.407Z,100208.28
2018-07-10T16:46:17.653Z,100203.91
2018-07-10T16:49:01.207Z,100203.16
2018-07-10T16:51:48.893Z,100205.61
2018-07-10T16:54:18.680Z,100213.00
2018-07-10T16:56:48.780Z,100213.98
2018-07-10T16:59:17.987Z,100212.98
2018-07-10T17:01:46.088Z,100220.30
2018-07-10T17:04:14.179Z,100224.46
2018-07-10T17:06:42.303Z,100223.28
2018-07-10T17:09:10.366Z,100230.97
2018-07-10T17:11:38.562Z,100226.55
2018-07-10T17:14:06.650Z,100230.07
2018-07-10T17:16:38.253Z,100227.83
2018-07-10T17:19:06.344Z,100222.00
2018-07-10T17:21:34.803Z,100225.02
2018-07-10T17:24:04.683Z,100234.71
2018-07-10T17:26:32.926Z,100234.59
2018-07-10T17:29:04.966Z,100235.77
2018-07-10T17:31:33.152Z,100244.95
2018-07-10T17:34:02.028Z,100243.80
2018-07-10T17:36:30.091Z,100249.16
2018-07-10T17:38:59.465Z,100243.47
2018-07-10T17:41:30.046Z,100218.75
2018-07-10T17:43:58.157Z,100247.44
2018-07-10T17:46:26.319Z,100238.30
2018-07-10T17:48:54.369Z,100247.15
2018-07-10T17:51:31.607Z,100265.16
2018-07-10T17:54:05.299Z,100269.14
2018-07-10T17:56:34.704Z,100272.52
2018-07-10T17:59:06.733Z,100279.73
2018-07-10T18:01:43.922Z,100273.84
2018-07-10T18:04:13.617Z,100273.05
2018-07-10T18:06:47.584Z,100133.94
2018-07-10T18:09:16.302Z,100308.17
2018-07-10T18:11:47.102Z,100304.79
2018-07-10T18:14:19.144Z,100299.41
2018-07-10T18:16:47.216Z,100302.58
2018-07-10T18:19:15.299Z,100306.32
2018-07-10T18:21:43.367Z,100308.50
2018-07-10T18:24:11.588Z,100316.79
2018-07-10T18:26:40.569Z,100327.25
2018-07-10T18:29:08.752Z,100329.53
2018-07-10T18:31:36.935Z,100322.73
2018-07-10T18:34:05.856Z,100322.16
2018-07-10T18:36:35.790Z,100322.14
2018-07-10T18:39:04.881Z,100331.47
2018-07-10T18:41:33.188Z,100330.22
2018-07-10T18:44:02.026Z,100336.74
2018-07-10T18:46:30.288Z,100345.24
2018-07-10T18:48:59.050Z,100359.08
2018-07-10T18:51:28.534Z,100361.67
2018-07-10T18:53:56.853Z,100366.84
2018-07-10T18:56:26.824Z,100207.84
2018-07-10T18:59:02.803Z,100382.23
2018-07-10T19:01:40.712Z,100382.58
2018-07-10T19:04:08.932Z,100383.74
2018-07-10T19:06:37.052Z,100395.19
2018-07-10T19:09:05.733Z,100397.70
2018-07-10T19:11:33.934Z,100400.63
2018-07-10T19:14:02.419Z,100403.90
2018-07-10T19:16:35.087Z,100403.09
2018-07-10T19:19:04.940Z,100402.11
2018-07-10T19:21:38.973Z,100415.95
2018-07-10T19:24:14.722Z,100416.75
2018-07-10T19:26:43.496Z,100424.06
2018-07-10T19:29:15.099Z,100424.05
2018-07-10T19:31:43.668Z,100432.48
2018-07-10T19:34:11.793Z,100432.61
2018-07-10T19:36:39.965Z,100434.31
2018-07-10T19:39:08.645Z,100427.94
2018-07-10T19:41:36.996Z,100431.03
2018-07-10T19:44:05.064Z,100430.05
2018-07-10T19:46:34.849Z,100426.05
2018-07-10T19:49:04.632Z,100426.23
2018-07-10T19:51:32.810Z,100430.75
2018-07-10T19:54:05.200Z,100440.69
2018-07-10T19:56:33.320Z,100438.86
2018-07-10T19:59:04.712Z,100445.97
2018-07-10T20:01:36.954Z,100444.00
2018-07-10T20:04:07.633Z,100443.77
2018-07-10T20:07:44.177Z,100447.63
2018-07-10T20:10:30.140Z,100456.75
2018-07-10T20:13:04.697Z,100451.03
2018-07-10T20:15:50.760Z,100446.36
2018-07-10T20:18:27.975Z,100458.05
2018-07-10T20:21:06.947Z,100459.77
2018-07-10T20:24:55.301Z,100468.04
2018-07-10T20:27:30.339Z,100475.09
2018-07-10T20:30:09.918Z,100474.23
2018-07-10T20:32:44.115Z,100477.87
2018-07-10T20:35:32.493Z,100478.45
2018-07-10T20:38:01.890Z,100486.72
2018-07-10T20:40:36.360Z,100485.14
2018-07-10T20:43:10.664Z,100489.71
2018-07-10T20:45:49.299Z,100496.12
2018-07-10T20:48:22.964Z,100496.15
2018-07-10T20:51:01.806Z,100498.78
2018-07-10T20:53:43.246Z,100505.20
2018-07-10T20:56:20.280Z,100505.03
2018-07-10T20:58:52.924Z,100500.28
2018-07-10T21:01:25.403Z,100502.42
2018-07-10T21:03:56.702Z,100500.92
2018-07-10T21:06:34.110Z,100500.17
2018-07-10T21:09:09.164Z,100495.16
2018-07-10T21:11:41.996Z,100488.55
2018-07-10T21:14:16.997Z,100489.30
2018-07-10T21:17:09.816Z,100491.77
2018-07-10T21:19:46.347Z,100486.74
2018-07-10T21:22:27.206Z,100489.96
2018-07-10T21:25:05.079Z,100475.88
2018-07-10T21:27:39.583Z,100488.58
2018-07-10T21:30:15.068Z,100487.71
2018-07-10T21:32:56.117Z,100494.42
2018-07-10T21:35:27.644Z,100494.00
2018-07-10T21:40:07.944Z,100498.16
2018-07-10T21:43:00.817Z,100496.94
2018-07-10T21:46:01.731Z,100499.88
2018-07-10T21:48:43.629Z,100505.78
2018-07-10T21:51:11.778Z,100510.52
2018-07-10T21:53:39.880Z,100514.26
2018-07-10T21:56:07.996Z,100512.45
2018-07-10T21:58:36.046Z,100514.00
2018-07-10T22:01:43.300Z,100511.58
2018-07-10T22:04:14.873Z,100522.03
2018-07-10T22:06:43.001Z,100513.48
2018-07-10T22:09:11.931Z,100516.00
2018-07-10T22:11:40.123Z,100518.61
2018-07-10T22:14:09.938Z,100529.28
2018-07-10T22:16:38.301Z,100510.75
2018-07-10T22:19:06.366Z,100526.57
2018-07-10T22:21:34.452Z,100523.38
2018-07-10T22:24:02.599Z,100532.27
2018-07-10T22:26:30.935Z,100527.66
2018-07-10T22:28:59.872Z,100542.13
2018-07-10T22:31:33.239Z,100541.61
2018-07-10T22:34:01.697Z,100544.86
2018-07-10T22:36:29.999Z,100554.86
2018-07-10T22:38:58.823Z,100555.60
2018-07-10T22:41:27.209Z,100555.95
2018-07-10T22:43:55.405Z,100552.83
2018-07-10T22:46:26.131Z,100545.67
2018-07-10T22:49:09.637Z,100553.03
2018-07-10T22:51:37.708Z,100558.28
2018-07-10T22:54:06.195Z,100547.13
2018-07-10T22:56:35.068Z,100546.66
2018-07-10T22:59:03.441Z,100551.27
2018-07-10T23:01:32.249Z,100562.20
2018-07-10T23:04:00.378Z,100555.52
2018-07-10T23:06:28.573Z,100561.33
2018-07-10T23:08:56.895Z,100556.00
2018-07-10T23:11:25.055Z,100551.05
2018-07-10T23:13:53.860Z,100552.66
2018-07-10T23:16:23.560Z,100556.00
2018-07-10T23:18:52.331Z,100551.05
2018-07-10T23:21:20.623Z,100555.78
2018-07-10T23:23:49.338Z,100556.00
2018-07-10T23:26:18.917Z,100555.71
2018-07-10T23:28:51.492Z,100559.67
2018-07-10T23:31:20.148Z,100561.25
2018-07-10T23:34:23.354Z,100559.59
2018-07-10T23:36:53.632Z,100557.01
2018-07-10T23:39:28.114Z,100555.92
2018-07-10T23:42:01.692Z,100553.22
2018-07-10T23:44:31.653Z,100517.71
2018-07-10T23:47:10.039Z,100567.72
2018-07-10T23:49:38.146Z,100556.63
2018-07-10T23:53:20.423Z,100557.57
2018-07-10T23:55:48.611Z,100560.88
2018-07-10T23:58:16.782Z,100559.34
